Main page
METAR-TAF:

METAR-TAF

Airports :

Fès–Saïs Airport

Fes, Morocco

latitude: 33-56N, longitude: 004-59W, elevation: 579 m

Current weather observation

The report was made 25 minutes ago, at 07:30 UTC
Wind 6 kt from the South
Temperature 4°C
Humidity 75%
Pressure 1020 hPa
Visibility 10 km or more
no clouds below 1500 m and no cumulonimbus

METAR: GMFF 080730Z 17006KT CAVOK 04/00 Q1020 NOSIG

Time: 08:55 (07:55 UTC)

Forecast

The report was made 2 hours and 55 minutes ago, at 05:00 UTC
Forecast valid from 08 at 06 UTC to 09 at 12 UTC
Wind 5 kt from the Southwest
Visibility 10 km or more
Scattered clouds at a height of 2600 ft
Broken clouds at a height of 10000 ft
Becoming
from 08 at 12 UTC to 08 at 15 UTC
Wind 12 kt from the Northeast

TAF: GMFF 080500Z 0806/0912 22005KT 9999 SCT026 BKN100 BECMG 0812/0815 04012KT

Weather observations and forecasts of more than 4000 airports (METAR and TAF reports).

The available stations are represented by yellow and red dots on the map.

Hover mouse over dot to see the name of the station.

Then click to see weather observations and forecasts.

To change the map : click on the green buttons with a black cross to zoom in, on the green button with a dash to zoom out, or on the green arrows for adjacent maps.


METAR-TAF: